Terminal Aerodrome Forecast
Issued by NWS Jackson, KY

Home | Current Version | Previous Version | Text Only | Print | Product List | Glossary On
Versions: 1 2 3 4 5 6 7 8 9 10 11 12 13 14 15 16 17 18 19 20 21 22 23 24 25 26 27
000
FTUS43 KJKL 291338 AAB
TAFJKL
TAF AMD
KJKL 291338Z 2914/3012 00000KT 6SM -SHRA BR VCTS BKN004 OVC015CB
     FM291430 VRB03KT P6SM VCSH SCT003 BKN008
     FM291500 VRB03KT P6SM VCSH SCT003 OVC015
     FM291800 22004KT P6SM VCTS SCT020CB BKN035
     FM300300 00000KT 3SM BR SCT040 BKN150
     FM300900 00000KT 3SM BR SCT003 BKN008=

USA.gov is the U.S. government's official web portal to all federal, state and local government web resources and services.